PWSweather.com
Personal Weather Stations
Station Observations
WISCHPK61
Green Bay Schmitt Park, Green Bay, WI 54311

Green Bay Schmitt ParkGreen Bay, WI 54311

Lat: 44.514277, Lon: -87.935067

Elevation: 735

Station Type: Acu Rite Pro Weather Center model 02032C

http://greenbayweathercam.com

High Low Average
Temperature 80.4°F26.9°C 55.2°F12.9°C 64.4°F18.0°C
Dew Point 80.1°F26.7°C 49.2°F9.6°C 61.7°F16.5°C
Winds 1.2 mph 1.9 kmh Calm Calm Calm SWCalm SW
Wind Gusts 2.3 mph3.7 kmh -- --
Humidity 99% 53% 92%
Pressure 29.22 in989.5 mb 29.03 in983.1 mb -
Precipitation 0.00 in0.0 mm - -
Hour Temp Dew Point Humidity Winds Wind Gusts Pressure Precip Precip Rate Daily Precip Total
12:00 AM 58.8°F14.9°C 58.5°F14.7°C 99% Calm Calm -- 29.05 in983.7 mb - 0.00 in0.0 mm 0.00 in0.0 mm
01:00 AM 59.2°F15.1°C 58.9°F14.9°C 99% Calm Calm -- 29.05 in983.7 mb - 0.00 in0.0 mm 0.00 in0.0 mm
02:00 AM 58.4°F14.7°C 54.2°F12.3°C 86% Calm Calm -- 29.03 in983.1 mb - 0.00 in0.0 mm 0.00 in0.0 mm
03:00 AM 57.2°F14.0°C 49.7°F9.8°C 76% Calm Calm -- 29.03 in983.1 mb - 0.00 in0.0 mm 0.00 in0.0 mm
04:00 AM 55.9°F13.3°C 55.6°F13.1°C 99% Calm Calm -- 29.03 in983.1 mb - 0.00 in0.0 mm 0.00 in0.0 mm
05:00 AM 55.4°F13.0°C 55.1°F12.8°C 99% Calm Calm -- 29.03 in983.1 mb - 0.00 in0.0 mm 0.00 in0.0 mm
06:00 AM 55.2°F12.9°C 54.9°F12.7°C 99% Calm Calm -- 29.04 in983.4 mb - 0.00 in0.0 mm 0.00 in0.0 mm
07:00 AM 56.8°F13.8°C 56.5°F13.6°C 99% 1.2 mph W1.9 kmh W 2.3 mph3.7 kmh 29.05 in983.7 mb - 0.00 in0.0 mm 0.00 in0.0 mm
08:00 AM 58.6°F14.8°C 53.5°F11.9°C 83% Calm Calm 1.2 mph1.9 kmh 29.07 in984.4 mb - 0.00 in0.0 mm 0.00 in0.0 mm
09:00 AM 60.8°F16.0°C 60.5°F15.8°C 99% Calm Calm -- 29.07 in984.4 mb - 0.00 in0.0 mm 0.00 in0.0 mm
10:00 AM 63.7°F17.6°C 63.4°F17.4°C 99% Calm Calm -- 29.07 in984.4 mb - 0.00 in0.0 mm 0.00 in0.0 mm
11:00 AM 66.0°F18.9°C 65.7°F18.7°C 99% Calm Calm 1.2 mph1.9 kmh 29.06 in984.1 mb - 0.00 in0.0 mm 0.00 in0.0 mm
12:00 PM 67.6°F19.8°C 67.3°F19.6°C 99% 1.2 mph W1.9 kmh W 1.2 mph1.9 kmh 29.09 in985.1 mb - 0.00 in0.0 mm 0.00 in0.0 mm
01:00 PM 72.5°F22.5°C 72.2°F22.3°C 99% 1.2 mph NW1.9 kmh NW 2.3 mph3.7 kmh 29.09 in985.1 mb - 0.00 in0.0 mm 0.00 in0.0 mm
02:00 PM 75.6°F24.2°C 72.8°F22.7°C 91% Calm Calm -- 29.10 in985.4 mb - 0.00 in0.0 mm 0.00 in0.0 mm
03:00 PM 80.4°F26.9°C 80.1°F26.7°C 99% Calm Calm -- 29.11 in985.8 mb - 0.00 in0.0 mm 0.00 in0.0 mm
04:00 PM 77.2°F25.1°C 63.6°F17.6°C 63% Calm Calm 1.2 mph1.9 kmh 29.12 in986.1 mb - 0.00 in0.0 mm 0.00 in0.0 mm
05:00 PM 75.7°F24.3°C 75.4°F24.1°C 99% Calm Calm -- 29.12 in986.1 mb - 0.00 in0.0 mm 0.00 in0.0 mm
06:00 PM 72.2°F22.3°C 71.9°F22.2°C 99% 1.2 mph WSW1.9 kmh WSW 2.3 mph3.7 kmh 29.12 in986.1 mb - 0.00 in0.0 mm 0.00 in0.0 mm
07:00 PM 70.7°F21.5°C 70.4°F21.3°C 99% Calm Calm -- 29.12 in986.1 mb - 0.00 in0.0 mm 0.00 in0.0 mm
08:00 PM 66.9°F19.4°C 49.2°F9.6°C 53% Calm Calm -- 29.14 in986.8 mb - 0.00 in0.0 mm 0.00 in0.0 mm
09:00 PM 63.1°F17.3°C 62.8°F17.1°C 99% Calm Calm -- 29.15 in987.1 mb - 0.00 in0.0 mm 0.00 in0.0 mm
10:00 PM 60.1°F15.6°C 59.8°F15.4°C 99% Calm Calm -- 29.18 in988.1 mb - 0.00 in0.0 mm 0.00 in0.0 mm
11:00 PM 58.3°F14.6°C 50.0°F10.0°C 74% Calm Calm -- 29.21 in989.2 mb - 0.00 in0.0 mm 0.00 in0.0 mm